Flight Track Log - Related Links

Times and Time Zones

All times are in EDT time to prevent confusion due to time zone crossing. See the CPZ5714 flight status page for this flight to view local times or setup timezone preferences in your user account.

Time Position Orientation Groundspeed Altitude Reporting Facility
EDT Latitude Longitude Course Direction KTS MPH feet Rate Location/Type
Wed 09:03:00 PM 45.2013 -92.7146 50° Northeast  Level FlightAware Approximate
Wed 09:04:00 PM 45.2823 -92.5849 47° Northeast  Level FlightAware Approximate
Wed 09:05:00 PM 45.3598 -92.4565 45° Northeast  Level FlightAware Approximate
Wed 09:06:00 PM 45.4445 -92.3314 49° Northeast  Level FlightAware Approximate
Wed 09:06:37 PM 45.2011 -93.0161 46° Northeast 287 330 10,200  Level Minneapolis Center
Wed 09:07:00 PM 45.5249 -92.2003 48° Northeast  Level FlightAware Approximate
Wed 09:07:39 PM 45.2656 -92.8867 55° Northeast 340 391 11,800  Level Minneapolis Center
Wed 09:08:00 PM 45.6066 -92.0708 48° Northeast  Level FlightAware Approximate
Wed 09:08:54 PM 45.3192 -92.7292 64° Northeast 372 428 14,100  Level Minneapolis Center
Wed 09:09:00 PM 45.6899 -91.9435 35° Northeast  Level FlightAware Approximate
Wed 09:09:56 PM 45.3508 -92.5808 73° East 391 450 15,800  Level Minneapolis Center
Wed 09:10:00 PM 45.7715 -91.8142 49° Northeast  Level FlightAware Approximate
Wed 09:10:58 PM 45.3925 -92.3978 72° East 406 467 18,300  Level Minneapolis Center
Wed 09:11:00 PM 45.8511 -91.6817 46° Northeast  Level FlightAware Approximate
Wed 09:12:00 PM 45.4258 -92.2400 73° East 416 479 19,800  Level Minneapolis Center
Wed 09:13:02 PM 45.4628 -92.0769 72° East 430 495 21,400 1,500 Climbing Minneapolis Center
Wed 09:14:04 PM 45.4981 -91.9092 73° East 439 505 22,900 1,452 Climbing Minneapolis Center
Wed 09:15:06 PM 45.5336 -91.7386 73° East 447 514 24,400 1,452 Climbing Minneapolis Center
Wed 09:16:08 PM 45.5767 -91.5303 73° East 456 525 25,900 1,210 Climbing Minneapolis Center
Wed 09:17:10 PM 45.6144 -91.3542 73° East 463 533 26,900 919 Climbing Minneapolis Center
Wed 09:18:12 PM 45.6500 -91.1797 74° East 471 542 27,800 919 Climbing Minneapolis Center
Wed 09:19:14 PM 45.6875 -90.9961 74° East 478 550 28,800 871 Climbing Minneapolis Center
Wed 09:20:16 PM 45.7253 -90.8125 74° East 481 554 29,600 1,016 Climbing Minneapolis Center
Wed 09:21:18 PM 45.7706 -90.5883 74° East 487 560 30,900 1,306 Climbing Minneapolis Center
Wed 09:22:20 PM 45.8067 -90.4061 74° East 478 550 32,300 1,008 Climbing Minneapolis Center
Wed 09:23:23 PM 45.8417 -90.2292 74° East 466 536 33,000 576 Climbing Minneapolis Center
Wed 09:24:25 PM 45.8772 -90.0489 74° East 469 540 33,500 581 Climbing Minneapolis Center
Wed 09:25:27 PM 45.9125 -89.8667 74° East 473 544 34,200 629 Climbing Minneapolis Center
Wed 09:26:29 PM 45.9439 -89.7006 75° East 468 539 34,800 387 Climbing Minneapolis Center
Wed 09:27:31 PM 45.9861 -89.4842 74° East 468 539 35,000 88 Climbing Minneapolis Center
Wed 09:28:45 PM 46.0194 -89.3044 75° East 467 537 35,000  Level Minneapolis Center
Wed 09:29:47 PM 46.0594 -89.0908 75° East 464 534 35,000  Level Minneapolis Center
Wed 09:30:50 PM 46.0986 -88.8761 75° East 468 539 35,000  Level Minneapolis Center
Wed 09:31:51 PM 46.1253 -88.7311 75° East 471 542 35,000  Level Minneapolis Center
Wed 09:32:54 PM 46.1647 -88.5156 75° East 465 535 35,000  Level Minneapolis Center
Wed 09:33:56 PM 46.1969 -88.3361 75° East 465 535 35,000  Level Minneapolis Center
Wed 09:34:58 PM 46.2297 -88.1517 76° East 474 545 35,000  Level Minneapolis Center
Wed 09:36:00 PM 46.2628 -87.9617 76° East 478 550 35,000  Level Minneapolis Center
Wed 09:37:14 PM 46.2953 -87.7742 76° East 481 554 35,000  Level Minneapolis Center
Wed 09:38:16 PM 46.3408 -87.5078 76° East 488 562 35,000  Level Minneapolis Center
Wed 09:39:18 PM 46.3619 -87.3156 81° East 483 556 35,000  Level Minneapolis Center
Wed 09:40:20 PM 46.3672 -87.1208 88° East 485 558 35,000 -48 Level Minneapolis Center
Wed 09:41:22 PM 46.3486 -86.9342 98° East 471 542 34,900  Descending Minneapolis Center
Wed 09:42:24 PM 46.3125 -86.7544 106° East 467 537 35,000 48 Climbing Minneapolis Center
Wed 09:43:26 PM 46.2753 -86.5750 107° East 467 537 35,000  Level Minneapolis Center
Wed 09:44:40 PM 46.2383 -86.3942 106° East 469 540 35,000  Level Minneapolis Center
Wed 09:45:42 PM 46.1858 -86.1394 106° East 470 541 35,000  Level Minneapolis Center
Wed 09:46:44 PM 46.1456 -85.9544 107° East 480 552 35,000  Level Minneapolis Center
Wed 09:47:46 PM 46.1072 -85.7686 107° East 483 556 35,000  Level Minneapolis Center
Wed 09:48:47 PM 46.0672 -85.5828 107° East 485 558 35,000  Level Minneapolis Center
Wed 09:49:49 PM 46.0253 -85.3967 108° East 488 562 35,000  Level Minneapolis Center
Wed 09:50:51 PM 45.9842 -85.2100 108° East 488 562 35,000  Level Minneapolis Center
Wed 09:51:53 PM 45.9436 -85.0208 107° East 493 567 35,000  Level Minneapolis Center
Wed 09:52:55 PM 45.8919 -84.7933 108° East 497 572 35,000  Level Minneapolis Center
Wed 09:53:56 PM 45.8489 -84.6011 108° East 501 577 35,000  Level Minneapolis Center
Wed 09:54:58 PM 45.8064 -84.4139 108° East 499 574 35,000  Level Minneapolis Center
Wed 09:56:00 PM 45.7625 -84.2253 108° East 498 573 35,000  Level Minneapolis Center
Wed 09:57:02 PM 45.7203 -84.0389 108° East 496 571 35,000  Level Minneapolis Center
Wed 09:58:03 PM 45.6767 -83.8525 108° East 493 567 35,000  Level Minneapolis Center
Wed 09:59:05 PM 45.6336 -83.6664 108° East 494 568 35,000  Level Minneapolis Center
Wed 10:00:07 PM 45.5808 -83.4431 109° East 494 568 35,000  Level Minneapolis Center
Wed 10:01:08 PM 45.5361 -83.2547 109° East 498 573 35,000  Level Minneapolis Center
Wed 10:02:02 PM 45.4833 -83.0833 114° Southeast 500 575 35,000  Level Toronto Center
Wed 10:03:02 PM 45.4333 -82.8833 110° East 510 587 35,000  Level Toronto Center
Wed 10:04:02 PM 45.3833 -82.7000 111° Southeast 500 575 35,000  Level Toronto Center
Wed 10:05:02 PM 45.3500 -82.5333 106° East 490 564 35,000  Level Toronto Center
Wed 10:06:02 PM 45.3000 -82.3333 110° East 490 564 35,000  Level Toronto Center
Wed 10:07:02 PM 45.2500 -82.1500 111° Southeast 490 564 35,000  Level Toronto Center
Wed 10:08:02 PM 45.2000 -81.9833 113° Southeast 490 564 35,000  Level Toronto Center
Wed 10:09:02 PM 45.1667 -81.7833 103° East 490 564 35,000  Level Toronto Center
Wed 10:10:02 PM 45.1167 -81.6167 113° Southeast 490 564 35,000  Level Toronto Center
Wed 10:11:02 PM 45.0667 -81.4333 111° Southeast 490 564 35,000  Level Toronto Center
Wed 10:12:02 PM 45.0167 -81.2333 109° East 500 575 35,000  Level Toronto Center
Wed 10:13:02 PM 44.9667 -81.0667 113° Southeast 500 575 35,000  Level Toronto Center
Wed 10:14:02 PM 44.9167 -80.8833 111° Southeast 500 575 35,000  Level Toronto Center
Wed 10:15:02 PM 44.8833 -80.6833 103° East 500 575 35,000  Level Toronto Center
Wed 10:16:02 PM 44.8333 -80.5000 111° Southeast 500 575 35,000  Level Toronto Center
Wed 10:17:02 PM 44.7833 -80.3333 113° Southeast 500 575 35,000  Level Toronto Center
Wed 10:18:02 PM 44.7333 -80.1500 111° Southeast 500 575 35,000  Level Toronto Center
Wed 10:19:02 PM 44.6833 -79.9667 111° Southeast 500 575 35,000  Level Toronto Center
Wed 10:20:02 PM 44.6333 -79.8000 113° Southeast 500 575 35,000  Level Toronto Center
Wed 10:21:02 PM 44.5667 -79.6167 117° Southeast 500 575 35,000  Level Toronto Center
Wed 10:22:02 PM 44.5167 -79.4167 109° East 510 587 35,000  Level Toronto Center
Wed 10:23:02 PM 44.4667 -79.2333 111° Southeast 510 587 35,000  Level Toronto Center
Wed 10:24:02 PM 44.4167 -79.0500 111° Southeast 510 587 35,000  Level Toronto Center
Wed 10:25:02 PM 44.3667 -78.8667 111° Southeast 510 587 35,000  Level Toronto Center
Wed 10:26:02 PM 44.3167 -78.6833 111° Southeast 510 587 35,000  Level Toronto Center
Wed 10:27:02 PM 44.2667 -78.5167 113° Southeast 510 587 35,000  Level Toronto Center
Wed 10:28:02 PM 44.2000 -78.3000 113° Southeast 500 575 35,000  Level Toronto Center
Wed 10:29:02 PM 44.1500 -78.1500 115° Southeast 500 575 35,000  Level Toronto Center
Wed 10:30:02 PM 44.1000 -77.9667 111° Southeast 500 575 35,000  Level Toronto Center
Wed 10:31:02 PM 44.0500 -77.7833 111° Southeast 510 587 35,000 -450 Level Toronto Center
Wed 10:32:02 PM 44.0000 -77.6000 111° Southeast 500 575 34,100 -1,000 Descending Toronto Center
Wed 10:33:02 PM 43.9500 -77.4333 113° Southeast 500 575 33,000 -550 Descending Toronto Center
Wed 10:34:02 PM 43.8833 -77.2500 117° Southeast 500 575 33,000  Level Toronto Center
Wed 10:35:02 PM 43.8167 -77.0667 117° Southeast 500 575 33,000  Level Toronto Center
Wed 10:36:02 PM 43.7667 -76.9167 115° Southeast 500 575 33,000  Level Toronto Center
Wed 10:37:02 PM 43.7167 -76.7000 108° East 510 587 33,000  Level Toronto Center
Wed 10:38:19 PM 43.6594 -76.5186 114° Southeast 498 573 33,000 -701 Level Boston Center
Wed 10:39:19 PM 43.6033 -76.3372 113° Southeast 498 573 31,400 -1,750 Descending Boston Center
Wed 10:40:19 PM 43.5444 -76.1614 115° Southeast 503 579 29,500 -1,850 Descending Boston Center
Wed 10:41:19 PM 43.4875 -75.9861 114° Southeast 503 579 27,700 -1,700 Descending Boston Center
Wed 10:42:19 PM 43.4303 -75.8139 115° Southeast 503 579 26,100 -850 Descending Boston Center
Wed 10:43:19 PM 43.3747 -75.6394 114° Southeast 498 573 26,000 -50 Descending Boston Center
Wed 10:44:19 PM 43.3167 -75.4708 115° Southeast 493 567 26,000 -850 Level Boston Center
Wed 10:45:19 PM 43.2544 -75.2967 116° Southeast 493 567 24,300 -2,050 Descending Boston Center
Wed 10:46:19 PM 43.2044 -75.1319 113° Southeast 485 558 21,900 -2,300 Descending Boston Center
Wed 10:47:19 PM 43.1536 -74.9817 115° Southeast 451 519 19,700 -2,265 Descending Boston Center
Wed 10:47:57 PM 43.1244 -74.8922 114° Southeast 432 497 18,200 -2,182 Descending Boston Center
Wed 10:48:58 PM 43.0753 -74.7511 115° Southeast 411 473 16,100 -1,736 Descending Boston Center
Wed 10:49:58 PM 43.0406 -74.5992 107° East 396 456 14,700 -1,701 Descending Boston Center
Wed 10:51:05 PM 43.0186 -74.4394 101° East 383 441 12,500 -1,745 Descending Boston Center
Wed 10:52:19 PM 42.9961 -74.2767 101° East 359 413 10,600 -1,339 Descending Boston Center
Wed 10:53:06 PM 42.9831 -74.1942 102° East 296 341 9,800 -1,333 Descending Boston Center
Wed 10:54:07 PM 42.9658 -74.0828 102° East 288 331 8,200 -1,623 Descending Boston Center
Wed 10:55:08 PM 42.9506 -73.9803 101° East 275 316 6,500 -1,686 Descending Boston Center
Wed 10:56:08 PM 42.9353 -73.8808 102° East 243 280 4,800 -1,686 Descending Boston Center
Wed 10:57:09 PM 42.8942 -73.8231 134° Southeast 216 249 3,100 -1,488 Descending Boston Center
Wed 10:58:09 PM 42.8422 -73.8133 172° South 167 192 1,800 -1,300 Descending Boston Center

Login

Don't have an account? Register now (free) for customized features, flight alerts, and more!